NCAR-RAP Real-Time Weather Data

Output produced by METARs form (26 May 2022  08:31 UTC)
found at http://weather.rap.ucar.edu/surface/
 
KCLE 260751Z 18015KT 10SM FEW120 BKN250 21/14 A2997 RMK AO2 SLP158 T02060139
KCLE 260651Z 17015G20KT 10SM OVC250 21/14 A2997 RMK AO2 SLP158 T02110139
KCLE 260551Z 16013KT 10SM OVC250 21/14 A2997 RMK AO2 SLP160 T02110139 10239 20206 58006
KCLE 260451Z 16014KT 10SM SCT210 OVC250 21/13 A2998 RMK AO2 SLP162 T02110133 402560144
KCLE 260351Z 15015KT 10SM OVC250 22/13 A2999 RMK AO2 SLP166 T02220133
KCLE 260251Z 15012KT 10SM OVC250 22/14 A2999 RMK AO2 SLP166 T02220139 56005
KCLE 260151Z 14010KT 10SM OVC250 23/14 A3000 RMK AO2 SLP169 T02280139
KCLE 260051Z 14010KT 10SM OVC250 23/14 A3000 RMK AO2 SLP169 T02330144
KCLE 252351Z 14013G20KT 110V170 10SM OVC250 24/14 A3001 RMK AO2 SLP172 T02390144 10256 20239 55012
KCLE 252251Z 14013G21KT 10SM BKN250 26/15 A3000 RMK AO2 SLP170 T02560150
KCLE 252151Z 15017KT 10SM BKN095 BKN250 26/16 A3003 RMK AO2 SLP180 T02560156
KCLE 252051Z 14010KT 10SM BKN075 BKN095 OVC250 24/15 A3004 RMK AO2 SLP185 T02440150 58019
KCLE 251951Z 15009KT 10SM BKN100 BKN110 OVC250 24/15 A3006 RMK AO2 SLP192 T02440150
KCLE 251851Z 13011KT 10SM FEW075 BKN100 OVC150 24/14 A3009 RMK AO2 SLP200 T02440144
KCLE 251751Z 13014G21KT 10SM FEW040 BKN150 BKN200 24/15 A3010 RMK AO2 SLP205 T02440150 10244 20167 58016
KCLE 251651Z 14013G19KT 10SM FEW033 BKN140 OVC200 23/14 A3013 RMK AO2 SLP216 T02330144
KCLE 251551Z 15013KT 10SM FEW050 BKN140 BKN250 23/15 A3015 RMK AO2 SLP220 T02280150
KCLE 251451Z 13009KT 10SM BKN160 BKN250 22/15 A3015 RMK AO2 SLP222 T02220150 58012
KCLE 251351Z 12008KT 10SM BKN160 BKN250 20/14 A3016 RMK AO2 SLP227 T02000139
KCLE 251251Z 16008KT 10SM SCT160 BKN250 18/13 A3018 RMK AO2 SLP235 T01780133
KCLE 251151Z 15011KT 10SM FEW160 SCT250 17/12 A3019 RMK AO2 SLP235 T01670122 10167 20144 53005 $
KCLE 251051Z 13007KT 10SM FEW100 SCT250 15/12 A3018 RMK AO2 SLP233 T01500122 $
KCLE 250951Z 13006KT 10SM BKN250 15/12 A3017 RMK AO2 SLP231 T01500122 $
KCLE 250851Z 11007KT 10SM BKN250 15/12 A3017 RMK AO2 SLP230 T01500122 55004 $
KCLE 250751Z 10004KT 10SM BKN250 15/12 A3017 RMK AO2 SLP229 T01500117 $
KCLE 250651Z 12004KT 10SM BKN250 14/12 A3017 RMK AO2 SLP231 T01440117 $
KCLE 250551Z 11004KT 10SM BKN250 15/11 A3018 RMK AO2 SLP235 T01500106 10178 20150 58001 $
KCLE 250451Z 10004KT 10SM BKN250 16/09 A3019 RMK AO2 SLP237 T01560094 401830100 $
KCLE 250351Z 08007KT 10SM BKN250 17/08 A3019 RMK AO2 SLP238 T01670083 $
KCLE 250251Z 06006KT 10SM BKN250 17/08 A3018 RMK AO2 SLP234 T01720083 53003 $
KCLE 250151Z 04007KT 10SM BKN250 16/09 A3017 RMK AO2 SLP230 T01560089 $
KCLE 250051Z 02008KT 10SM BKN250 17/08 A3017 RMK AO2 SLP233 T01670083 $
KCLE 242351Z 03007KT 10SM BKN250 18/08 A3017 RMK AO2 SLP232 T01780078 10183 20167 57003 $
KCLE 242251Z 03012KT 10SM SCT250 18/08 A3018 RMK AO2 SLP234 T01830078 $
KCLE 242151Z 03011KT 10SM SCT250 18/09 A3018 RMK AO2 SLP236 T01830089 $
KCLE 242051Z 03010KT 10SM BKN250 18/09 A3018 RMK AO2 SLP237 T01780094 55006 $
KCLE 241951Z 36010KT 10SM BKN250 18/10 A3018 RMK AO2 SLP236 T01780100 $
KCLE 241851Z 36008KT 10SM FEW050 FEW200 18/10 A3019 RMK AO2 SLP238 T01830100 $
KCLE 241751Z 35007KT 10SM FEW050 FEW230 17/11 A3020 RMK AO2 SLP243 T01670106 10178 20128 50000 $
KCLE 241651Z 36011KT 10SM FEW050 FEW230 17/11 A3022 RMK AO2 SLP248 T01670111 $
KCLE 241551Z 35010KT 10SM FEW055 FEW250 17/11 A3020 RMK AO2 SLP241 T01720111 $
KCLE 241451Z 36007KT 10SM FEW055 FEW250 18/09 A3020 RMK AO2 SLP242 T01780089 58006 $
KCLE 241351Z 04005KT 10SM CLR 16/09 A3020 RMK AO2 SLP243 T01610094
KCLE 241251Z 04007KT 10SM FEW250 14/09 A3022 RMK AO2 SLP249 T01440089
KCLE 241151Z 03010KT 10SM FEW250 13/08 A3022 RMK AO2 SLP249 T01280083 10128 20100 53007
KCLE 241051Z 04005KT 9SM FEW250 11/08 A3021 RMK AO2 SLP248 T01060078
KCLE 240951Z 05005KT 10SM FEW250 11/07 A3020 RMK AO2 SLP245 T01060072
KCLE 240851Z 02005KT 10SM FEW250 10/07 A3020 RMK AO2 SLP243 T01000067 55006